Silver Wind — C6FG2 — position and weather

sailwx.info

Track history (hours):
 
Tides and Currents Weather Stations Pressure Air Temp Water Temp Dewpoint Dewpoint Depression Visibility Wind Speed Wind Dir Waves Ship Positions

Silver Wind

Operator: V Ships Leisure

Last reported at 2017-Sep-20 19:04 UTC. Time now 2017-Sep-22 06:16 UTC.
Position N 43°45' W 006°17'.

Length 156 m; draft 5.7 m.

Type: Passenger vessel. MMSI: 308814000.

Date/timePositionNaut miles runAvg speedWind from/ knotsBaromVisibWave heightAir tempDewpointWater temp
2017-Sep-20 19:04N 43°45' W 006°17'311.3
2017-Sep-20 18:47N 43°44' W 006°12'1811.4
2017-Sep-20 17:15N 43°42' W 005°48'411.1
2017-Sep-20 16:52N 43°40' W 005°43'410.9
2017-Sep-20 16:30N 43°36' W 005°40'3 0.8
2017-Sep-20 13:05N 43°33' W 005°41'0 0.0
2017-Sep-20 12:59N 43°33' W 005°41'0 0.0
2017-Sep-20 12:29N 43°33' W 005°41'0 0.0
2017-Sep-20 11:59N 43°33' W 005°41'0 0.0
2017-Sep-20 11:29N 43°33' W 005°41'0 0.0
2017-Sep-20 10:59N 43°33' W 005°41'0 0.0
2017-Sep-20 10:29N 43°33' W 005°41'0 0.0
2017-Sep-20 09:59N 43°33' W 005°41'0 0.0
2017-Sep-20 09:29N 43°33' W 005°41'0 0.0
2017-Sep-20 08:59N 43°33' W 005°41'0 0.0
2017-Sep-20 08:29N 43°33' W 005°41'0 0.0
2017-Sep-20 07:59N 43°33' W 005°41'0 0.0
2017-Sep-20 07:29N 43°33' W 005°41'0 0.0
2017-Sep-20 06:59N 43°33' W 005°41'0 0.0
2017-Sep-20 06:29N 43°33' W 005°41'0 0.0
2017-Sep-20 05:59N 43°33' W 005°41'0 0.7
2017-Sep-20 05:30N 43°34' W 005°41'3 5.1
2017-Sep-20 05:00N 43°35' W 005°38'612.3
2017-Sep-20 04:30N 43°36' W 005°30'613.0
2017-Sep-20 04:00N 43°36' W 005°21'713.1
2017-Sep-20 03:30N 43°36' W 005°12'713.3
2017-Sep-20 03:00N 43°36' W 005°02'813.7
2017-Sep-20 02:27N 43°36' W 004°52'6413.2
2017-Sep-19 21:36N 43°33' W 003°24'114.3
2017-Sep-19 21:30N 43°32' W 003°22'714.4
2017-Sep-19 21:00N 43°28' W 003°14'714.4
2017-Sep-19 20:30N 43°24' W 003°06'5 9.5
2017-Sep-19 20:00N 43°21' W 003°02'0 0.8
2017-Sep-19 19:26N 43°20' W 003°01'0 0.0
2017-Sep-19 18:59N 43°20' W 003°01'0 0.0
2017-Sep-19 18:23N 43°20' W 003°01'0 0.0
2017-Sep-19 17:59N 43°20' W 003°01'0 0.0
2017-Sep-19 17:29N 43°20' W 003°01'0 0.0
2017-Sep-19 16:59N 43°20' W 003°01'0 0.0
2017-Sep-19 16:29N 43°20' W 003°01'0 0.0
2017-Sep-19 15:59N 43°20' W 003°01'0 0.0
2017-Sep-19 12:41N 43°20' W 003°01'0 0.0
2017-Sep-19 12:29N 43°20' W 003°01'0 0.0
2017-Sep-19 11:59N 43°20' W 003°01'0 0.0
2017-Sep-19 11:29N 43°20' W 003°01'0 0.0
2017-Sep-19 10:59N 43°20' W 003°01'0 0.0
2017-Sep-19 10:29N 43°20' W 003°01'0 0.0
2017-Sep-19 09:59N 43°20' W 003°01'0 0.0
2017-Sep-19 09:29N 43°20' W 003°01'0 0.0
2017-Sep-19 08:59N 43°20' W 003°01'0 0.0
2017-Sep-19 08:29N 43°20' W 003°01'0 0.0
2017-Sep-19 08:00N 43°20' W 003°01'1 2.8
2017-Sep-19 07:31N 43°21' W 003°02'4 8.2
2017-Sep-19 07:00N 43°25' W 003°06'613.0
2017-Sep-19 06:30N 43°31' W 003°02'714.4
2017-Sep-19 06:00N 43°37' W 002°57'714.6
2017-Sep-19 05:30N 43°44' W 002°52'816.4
2017-Sep-19 05:00N 43°51' W 002°47'12215.9
2017-Sep-18 21:21N 45°37' W 001°21'816.7
2017-Sep-18 20:53N 45°40' W 001°11'717.1
2017-Sep-18 20:30N 45°36' W 001°04'917.5
2017-Sep-18 20:00N 45°29' W 000°56'917.6
2017-Sep-18 19:30N 45°22' W 000°48'6 0.1
2017-Sep-17 00:57N 45°27' W 000°53'715.5
2017-Sep-17 00:30N 45°32' W 000°60'816.0
2017-Sep-17 00:01N 45°38' W 001°07'815.2
2017-Sep-16 23:31N 45°38' W 001°18'19413.5
2017-Sep-16 09:05N 47°42' W 004°55'216.0
2017-Sep-16 08:57N 47°44' W 004°57'3115.6
2017-Sep-16 06:58N 48°09' W 005°23'2716.8
2017-Sep-16 05:20N 48°36' W 005°17'617.6
2017-Sep-16 05:00N 48°40' W 005°10'917.6
2017-Sep-16 04:30N 48°44' W 004°58'1017.2
2017-Sep-16 03:55N 48°49' W 004°45'122 4.2
2017-Sep-14 23:05N 49°48' W 002°01'114.3
2017-Sep-14 23:00N 49°48' W 001°59'714.3
2017-Sep-14 22:31N 49°49' W 001°48'714.8
2017-Sep-14 22:00N 49°50' W 001°37'815.4
2017-Sep-14 21:30N 49°51' W 001°25'815.5
2017-Sep-14 21:00N 49°48' W 001°14'815.6
2017-Sep-14 20:30N 49°45' W 001°03'3315.7
2017-Sep-14 18:24N 49°32' W 000°16'615.6
2017-Sep-14 18:00N 49°30' W 000°07'612.6
2017-Sep-14 17:31N 49°27' E 000°02'612.9
2017-Sep-14 17:00N 49°26' E 000°11'2 3.5
2017-Sep-14 16:29N 49°26' E 000°14'0 0.0
2017-Sep-14 15:56N 49°26' E 000°14'0 0.0
2017-Sep-14 15:29N 49°26' E 000°14'0 0.0
2017-Sep-14 14:59N 49°26' E 000°14'0 0.0
2017-Sep-14 14:29N 49°26' E 000°14'0 0.0
2017-Sep-14 13:59N 49°26' E 000°14'0 0.0
2017-Sep-14 13:29N 49°26' E 000°14'0 0.0
2017-Sep-14 12:59N 49°26' E 000°14'0 0.0
2017-Sep-14 12:29N 49°26' E 000°14'0 0.0
2017-Sep-14 11:59N 49°26' E 000°14'0 0.0
2017-Sep-14 11:29N 49°26' E 000°14'0 0.0
2017-Sep-14 10:59N 49°26' E 000°14'0 0.0
2017-Sep-14 10:29N 49°26' E 000°14'0 0.0
2017-Sep-14 09:59N 49°26' E 000°14'0 0.0
2017-Sep-14 09:29N 49°26' E 000°14'0 0.0
2017-Sep-14 08:59N 49°26' E 000°14'0 0.0
2017-Sep-14 08:29N 49°26' E 000°14'0 0.0
2017-Sep-14 07:59N 49°26' E 000°14'0 0.0
2017-Sep-14 07:29N 49°26' E 000°14'0 0.0
2017-Sep-14 06:56N 49°26' E 000°14'0 0.0
2017-Sep-14 06:29N 49°26' E 000°14'0 0.0
2017-Sep-14 06:00N 49°26' E 000°14'0 0.3
2017-Sep-14 05:30N 49°26' E 000°14'4 8.2
2017-Sep-14 05:00N 49°26' E 000°08'611.7
2017-Sep-14 04:30N 49°28' W 000°01'713.7
2017-Sep-14 04:01N 49°30' W 000°11'4715.3
2017-Sep-14 00:58N 50°16' W 000°09'716.4
2017-Sep-14 00:30N 50°23' W 000°05'815.0
2017-Sep-14 00:00N 50°28' E 000°04'816.5
2017-Sep-13 23:30N 50°30' E 000°17'917.0
2017-Sep-13 23:00N 50°33' E 000°29'917.3
2017-Sep-13 22:31N 50°37' E 000°42'917.7
2017-Sep-13 22:01N 50°42' E 000°53'917.8
2017-Sep-13 21:30N 50°47' E 001°05'917.5
2017-Sep-13 21:01N 50°53' E 001°15'917.0
2017-Sep-13 20:30N 50°59' E 001°24'816.0
2017-Sep-13 20:01N 51°05' E 001°32'815.2
2017-Sep-13 19:31N 51°10' E 001°41'815.3
2017-Sep-13 19:01N 51°16' E 001°49'815.5
2017-Sep-13 18:30N 51°22' E 001°56'713.5
2017-Sep-13 18:00N 51°24' E 002°07'815.8
2017-Sep-13 17:30N 51°21' E 002°18'714.9
2017-Sep-13 17:01N 51°23' E 002°29'714.5
2017-Sep-13 16:31N 51°23' E 002°41'714.8
2017-Sep-13 16:01N 51°23' E 002°53'713.9
2017-Sep-13 15:31N 51°25' E 003°04'714.5
2017-Sep-13 15:01N 51°25' E 003°15'714.9
2017-Sep-13 14:31N 51°25' E 003°27'612.2
2017-Sep-13 14:00N 51°26' E 003°37'4 8.1
2017-Sep-13 13:30N 51°24' E 003°43'612.9
2017-Sep-13 13:00N 51°21' E 003°51'713.5
2017-Sep-13 12:30N 51°26' E 003°59'612.4
2017-Sep-13 12:00N 51°22' E 004°07'510.5
2017-Sep-13 11:30N 51°21' E 004°15'510.8
2017-Sep-13 11:00N 51°16' E 004°19'4 8.6
2017-Sep-13 10:30N 51°13' E 004°24'0 0.4
2017-Sep-13 10:00N 51°13' E 004°24'0 0.0
2017-Sep-13 09:30N 51°13' E 004°24'0 0.0
2017-Sep-13 09:00N 51°13' E 004°24'0 0.0
2017-Sep-13 08:30N 51°13' E 004°24'0 0.0
2017-Sep-13 08:00N 51°13' E 004°24'0 0.0
2017-Sep-13 07:30N 51°13' E 004°24'0 0.0
2017-Sep-13 07:00N 51°13' E 004°24'0 0.0
2017-Sep-13 06:30N 51°13' E 004°24'0 0.0
2017-Sep-13 06:00N 51°13' E 004°24'0 0.0
2017-Sep-13 05:30N 51°13' E 004°24'0 0.0
2017-Sep-13 05:00N 51°13' E 004°24'0 0.0
2017-Sep-13 04:30N 51°13' E 004°24'0 0.0
2017-Sep-13 04:00N 51°13' E 004°24'0 0.0
2017-Sep-13 03:30N 51°13' E 004°24'0 0.0
2017-Sep-13 02:57N 51°13' E 004°24'0 0.0
2017-Sep-13 02:30N 51°13' E 004°24'0 0.0
2017-Sep-13 02:00N 51°13' E 004°24'0 0.0
2017-Sep-13 01:30N 51°13' E 004°24'0 0.0
2017-Sep-13 01:00N 51°13' E 004°24'0 0.0
2017-Sep-13 00:30N 51°13' E 004°24'0 0.0
2017-Sep-13 00:00N 51°13' E 004°24'0 0.0
2017-Sep-12 23:30N 51°13' E 004°24'0 0.0
2017-Sep-12 23:00N 51°13' E 004°24'0 0.0
2017-Sep-12 22:30N 51°13' E 004°24'0 0.0
2017-Sep-12 22:00N 51°13' E 004°24'0 0.0
2017-Sep-12 21:30N 51°13' E 004°24'0 0.0
2017-Sep-12 21:00N 51°13' E 004°24'0 0.0
2017-Sep-12 20:30N 51°13' E 004°24'0 0.0
2017-Sep-12 20:00N 51°13' E 004°24'0 0.0
2017-Sep-12 19:30N 51°13' E 004°24'0 0.0
2017-Sep-12 19:00N 51°13' E 004°24'0 0.0
2017-Sep-12 18:30N 51°13' E 004°24'0 0.0
2017-Sep-12 18:00N 51°13' E 004°24'0 0.0
2017-Sep-12 17:30N 51°13' E 004°24'0 0.0
2017-Sep-12 17:00N 51°13' E 004°24'0 0.0
2017-Sep-12 16:30N 51°13' E 004°24'0 0.0
2017-Sep-12 16:00N 51°13' E 004°24'0 0.0
2017-Sep-12 15:30N 51°13' E 004°24'0 0.0
2017-Sep-12 15:00N 51°13' E 004°24'0 0.0
2017-Sep-12 14:30N 51°13' E 004°24'0 0.0
2017-Sep-12 14:00N 51°13' E 004°24'0 0.0
2017-Sep-12 13:30N 51°13' E 004°24'0 0.0
2017-Sep-12 13:00N 51°13' E 004°24'0 0.0
2017-Sep-12 12:30N 51°13' E 004°24'0 0.0
2017-Sep-12 12:00N 51°13' E 004°24'0 0.0
2017-Sep-12 11:30N 51°13' E 004°24'0 0.0
2017-Sep-12 11:00N 51°13' E 004°24'0 0.0
2017-Sep-12 10:30N 51°13' E 004°24'0 0.0
2017-Sep-12 10:00N 51°13' E 004°24'0 0.0
2017-Sep-12 09:30N 51°13' E 004°24'0 0.0
2017-Sep-12 09:00N 51°13' E 004°24'0 0.0
2017-Sep-12 08:30N 51°13' E 004°24'0 0.0
2017-Sep-12 08:00N 51°13' E 004°24'0 0.0
2017-Sep-12 07:27N 51°13' E 004°24'0 0.0
2017-Sep-12 07:00N 51°13' E 004°24'0 0.0
2017-Sep-12 06:30N 51°13' E 004°24'0 0.0
2017-Sep-12 06:00N 51°13' E 004°24'0 1.0
2017-Sep-12 05:30N 51°14' E 004°24'4 7.5
2017-Sep-12 05:01N 51°15' E 004°18'4 8.8
2017-Sep-12 04:31N 51°19' E 004°16'510.9
2017-Sep-12 04:00N 51°23' E 004°10'713.3
2017-Sep-12 03:30N 51°26' E 004°00'815.2
2017-Sep-12 03:00N 51°21' E 003°52'613.0
2017-Sep-12 02:30N 51°24' E 003°43'510.8
2017-Sep-12 02:00N 51°26' E 003°35'612.5
2017-Sep-12 01:30N 51°30' E 003°27'714.3
2017-Sep-12 01:00N 51°37' E 003°22'612.2
2017-Sep-12 00:30N 51°42' E 003°16'1224.0
2017-Sep-12 00:00N 51°54' E 003°17'0 0.0
2017-Sep-11 23:30N 51°54' E 003°17'0 0.0
2017-Sep-11 23:00N 51°54' E 003°17'3 5.3
2017-Sep-11 22:30N 51°56' E 003°18'109 9.2
2017-Sep-11 10:36N 53°31' E 004°48'2 9.4
2017-Sep-11 10:22N 53°32' E 004°51'4 9.6
2017-Sep-11 09:59N 53°33' E 004°57'121 9.7
2017-Sep-10 21:34N 54°00' E 008°16'1 8.4
2017-Sep-10 21:28N 54°00' E 008°17'612.6
2017-Sep-10 21:00N 53°59' E 008°27'816.2
2017-Sep-10 20:30N 53°56' E 008°40'714.8
2017-Sep-10 20:00N 53°51' E 008°47'816.9
2017-Sep-10 19:31N 53°52' E 009°02'  
Track history (hours):
 
Tides and Currents Weather Stations Pressure Air Temp Water Temp Dewpoint Dewpoint Depression Visibility Wind Speed Wind Dir Waves Ship Positions

Silver Wind

Operator: V Ships Leisure

Last reported at 2017-Sep-20 19:04 UTC. Time now 2017-Sep-22 06:16 UTC.
Position N 43°45' W 006°17'.

Length 156 m; draft 5.7 m.

Type: Passenger vessel. MMSI: 308814000.

Date/timePositionNaut miles runAvg speedWind from/ knotsBaromVisibWave heightAir tempDewpointWater temp
2017-Sep-20 19:04N 43°45' W 006°17'311.3
2017-Sep-20 18:47N 43°44' W 006°12'1811.4
2017-Sep-20 17:15N 43°42' W 005°48'411.1
2017-Sep-20 16:52N 43°40' W 005°43'410.9
2017-Sep-20 16:30N 43°36' W 005°40'3 0.8
2017-Sep-20 13:05N 43°33' W 005°41'0 0.0
2017-Sep-20 12:59N 43°33' W 005°41'0 0.0
2017-Sep-20 12:29N 43°33' W 005°41'0 0.0
2017-Sep-20 11:59N 43°33' W 005°41'0 0.0
2017-Sep-20 11:29N 43°33' W 005°41'0 0.0
2017-Sep-20 10:59N 43°33' W 005°41'0 0.0
2017-Sep-20 10:29N 43°33' W 005°41'0 0.0
2017-Sep-20 09:59N 43°33' W 005°41'0 0.0
2017-Sep-20 09:29N 43°33' W 005°41'0 0.0
2017-Sep-20 08:59N 43°33' W 005°41'0 0.0
2017-Sep-20 08:29N 43°33' W 005°41'0 0.0
2017-Sep-20 07:59N 43°33' W 005°41'0 0.0
2017-Sep-20 07:29N 43°33' W 005°41'0 0.0
2017-Sep-20 06:59N 43°33' W 005°41'0 0.0
2017-Sep-20 06:29N 43°33' W 005°41'0 0.0
2017-Sep-20 05:59N 43°33' W 005°41'0 0.7
2017-Sep-20 05:30N 43°34' W 005°41'3 5.1
2017-Sep-20 05:00N 43°35' W 005°38'612.3
2017-Sep-20 04:30N 43°36' W 005°30'613.0
2017-Sep-20 04:00N 43°36' W 005°21'713.1
2017-Sep-20 03:30N 43°36' W 005°12'713.3
2017-Sep-20 03:00N 43°36' W 005°02'813.7
2017-Sep-20 02:27N 43°36' W 004°52'6413.2
2017-Sep-19 21:36N 43°33' W 003°24'114.3
2017-Sep-19 21:30N 43°32' W 003°22'714.4
2017-Sep-19 21:00N 43°28' W 003°14'714.4
2017-Sep-19 20:30N 43°24' W 003°06'5 9.5
2017-Sep-19 20:00N 43°21' W 003°02'0 0.8
2017-Sep-19 19:26N 43°20' W 003°01'0 0.0
2017-Sep-19 18:59N 43°20' W 003°01'0 0.0
2017-Sep-19 18:23N 43°20' W 003°01'0 0.0
2017-Sep-19 17:59N 43°20' W 003°01'0 0.0
2017-Sep-19 17:29N 43°20' W 003°01'0 0.0
2017-Sep-19 16:59N 43°20' W 003°01'0 0.0
2017-Sep-19 16:29N 43°20' W 003°01'0 0.0
2017-Sep-19 15:59N 43°20' W 003°01'0 0.0
2017-Sep-19 12:41N 43°20' W 003°01'0 0.0
2017-Sep-19 12:29N 43°20' W 003°01'0 0.0
2017-Sep-19 11:59N 43°20' W 003°01'0 0.0
2017-Sep-19 11:29N 43°20' W 003°01'0 0.0
2017-Sep-19 10:59N 43°20' W 003°01'0 0.0
2017-Sep-19 10:29N 43°20' W 003°01'0 0.0
2017-Sep-19 09:59N 43°20' W 003°01'0 0.0
2017-Sep-19 09:29N 43°20' W 003°01'0 0.0
2017-Sep-19 08:59N 43°20' W 003°01'0 0.0
2017-Sep-19 08:29N 43°20' W 003°01'0 0.0
2017-Sep-19 08:00N 43°20' W 003°01'1 2.8
2017-Sep-19 07:31N 43°21' W 003°02'4 8.2
2017-Sep-19 07:00N 43°25' W 003°06'613.0
2017-Sep-19 06:30N 43°31' W 003°02'714.4
2017-Sep-19 06:00N 43°37' W 002°57'714.6
2017-Sep-19 05:30N 43°44' W 002°52'816.4
2017-Sep-19 05:00N 43°51' W 002°47'12215.9
2017-Sep-18 21:21N 45°37' W 001°21'816.7
2017-Sep-18 20:53N 45°40' W 001°11'717.1
2017-Sep-18 20:30N 45°36' W 001°04'917.5
2017-Sep-18 20:00N 45°29' W 000°56'917.6
2017-Sep-18 19:30N 45°22' W 000°48'6 0.1
2017-Sep-17 00:57N 45°27' W 000°53'715.5
2017-Sep-17 00:30N 45°32' W 000°60'816.0
2017-Sep-17 00:01N 45°38' W 001°07'815.2
2017-Sep-16 23:31N 45°38' W 001°18'19413.5
2017-Sep-16 09:05N 47°42' W 004°55'216.0
2017-Sep-16 08:57N 47°44' W 004°57'3115.6
2017-Sep-16 06:58N 48°09' W 005°23'2716.8
2017-Sep-16 05:20N 48°36' W 005°17'617.6
2017-Sep-16 05:00N 48°40' W 005°10'917.6
2017-Sep-16 04:30N 48°44' W 004°58'1017.2
2017-Sep-16 03:55N 48°49' W 004°45'122 4.2
2017-Sep-14 23:05N 49°48' W 002°01'114.3
2017-Sep-14 23:00N 49°48' W 001°59'714.3
2017-Sep-14 22:31N 49°49' W 001°48'714.8
2017-Sep-14 22:00N 49°50' W 001°37'815.4
2017-Sep-14 21:30N 49°51' W 001°25'815.5
2017-Sep-14 21:00N 49°48' W 001°14'815.6
2017-Sep-14 20:30N 49°45' W 001°03'3315.7
2017-Sep-14 18:24N 49°32' W 000°16'615.6
2017-Sep-14 18:00N 49°30' W 000°07'612.6
2017-Sep-14 17:31N 49°27' E 000°02'612.9
2017-Sep-14 17:00N 49°26' E 000°11'2 3.5
2017-Sep-14 16:29N 49°26' E 000°14'0 0.0
2017-Sep-14 15:56N 49°26' E 000°14'0 0.0
2017-Sep-14 15:29N 49°26' E 000°14'0 0.0
2017-Sep-14 14:59N 49°26' E 000°14'0 0.0
2017-Sep-14 14:29N 49°26' E 000°14'0 0.0
2017-Sep-14 13:59N 49°26' E 000°14'0 0.0
2017-Sep-14 13:29N 49°26' E 000°14'0 0.0
2017-Sep-14 12:59N 49°26' E 000°14'0 0.0
2017-Sep-14 12:29N 49°26' E 000°14'0 0.0
2017-Sep-14 11:59N 49°26' E 000°14'0 0.0
2017-Sep-14 11:29N 49°26' E 000°14'0 0.0
2017-Sep-14 10:59N 49°26' E 000°14'0 0.0
2017-Sep-14 10:29N 49°26' E 000°14'0 0.0
2017-Sep-14 09:59N 49°26' E 000°14'0 0.0
2017-Sep-14 09:29N 49°26' E 000°14'0 0.0
2017-Sep-14 08:59N 49°26' E 000°14'0 0.0
2017-Sep-14 08:29N 49°26' E 000°14'0 0.0
2017-Sep-14 07:59N 49°26' E 000°14'0 0.0
2017-Sep-14 07:29N 49°26' E 000°14'0 0.0
2017-Sep-14 06:56N 49°26' E 000°14'0 0.0
2017-Sep-14 06:29N 49°26' E 000°14'0 0.0
2017-Sep-14 06:00N 49°26' E 000°14'0 0.3
2017-Sep-14 05:30N 49°26' E 000°14'4 8.2
2017-Sep-14 05:00N 49°26' E 000°08'611.7
2017-Sep-14 04:30N 49°28' W 000°01'713.7
2017-Sep-14 04:01N 49°30' W 000°11'4715.3
2017-Sep-14 00:58N 50°16' W 000°09'716.4
2017-Sep-14 00:30N 50°23' W 000°05'815.0
2017-Sep-14 00:00N 50°28' E 000°04'816.5
2017-Sep-13 23:30N 50°30' E 000°17'917.0
2017-Sep-13 23:00N 50°33' E 000°29'917.3
2017-Sep-13 22:31N 50°37' E 000°42'917.7
2017-Sep-13 22:01N 50°42' E 000°53'917.8
2017-Sep-13 21:30N 50°47' E 001°05'917.5
2017-Sep-13 21:01N 50°53' E 001°15'917.0
2017-Sep-13 20:30N 50°59' E 001°24'816.0
2017-Sep-13 20:01N 51°05' E 001°32'815.2
2017-Sep-13 19:31N 51°10' E 001°41'815.3
2017-Sep-13 19:01N 51°16' E 001°49'815.5
2017-Sep-13 18:30N 51°22' E 001°56'713.5
2017-Sep-13 18:00N 51°24' E 002°07'815.8
2017-Sep-13 17:30N 51°21' E 002°18'714.9
2017-Sep-13 17:01N 51°23' E 002°29'714.5
2017-Sep-13 16:31N 51°23' E 002°41'714.8
2017-Sep-13 16:01N 51°23' E 002°53'713.9
2017-Sep-13 15:31N 51°25' E 003°04'714.5
2017-Sep-13 15:01N 51°25' E 003°15'714.9
2017-Sep-13 14:31N 51°25' E 003°27'612.2
2017-Sep-13 14:00N 51°26' E 003°37'4 8.1
2017-Sep-13 13:30N 51°24' E 003°43'612.9
2017-Sep-13 13:00N 51°21' E 003°51'713.5
2017-Sep-13 12:30N 51°26' E 003°59'612.4
2017-Sep-13 12:00N 51°22' E 004°07'510.5
2017-Sep-13 11:30N 51°21' E 004°15'510.8
2017-Sep-13 11:00N 51°16' E 004°19'4 8.6
2017-Sep-13 10:30N 51°13' E 004°24'0 0.4
2017-Sep-13 10:00N 51°13' E 004°24'0 0.0
2017-Sep-13 09:30N 51°13' E 004°24'0 0.0
2017-Sep-13 09:00N 51°13' E 004°24'0 0.0
2017-Sep-13 08:30N 51°13' E 004°24'0 0.0
2017-Sep-13 08:00N 51°13' E 004°24'0 0.0
2017-Sep-13 07:30N 51°13' E 004°24'0 0.0
2017-Sep-13 07:00N 51°13' E 004°24'0 0.0
2017-Sep-13 06:30N 51°13' E 004°24'0 0.0
2017-Sep-13 06:00N 51°13' E 004°24'0 0.0
2017-Sep-13 05:30N 51°13' E 004°24'0 0.0
2017-Sep-13 05:00N 51°13' E 004°24'0 0.0
2017-Sep-13 04:30N 51°13' E 004°24'0 0.0
2017-Sep-13 04:00N 51°13' E 004°24'0 0.0
2017-Sep-13 03:30N 51°13' E 004°24'0 0.0
2017-Sep-13 02:57N 51°13' E 004°24'0 0.0
2017-Sep-13 02:30N 51°13' E 004°24'0 0.0
2017-Sep-13 02:00N 51°13' E 004°24'0 0.0
2017-Sep-13 01:30N 51°13' E 004°24'0 0.0
2017-Sep-13 01:00N 51°13' E 004°24'0 0.0
2017-Sep-13 00:30N 51°13' E 004°24'0 0.0
2017-Sep-13 00:00N 51°13' E 004°24'0 0.0
2017-Sep-12 23:30N 51°13' E 004°24'0 0.0
2017-Sep-12 23:00N 51°13' E 004°24'0 0.0
2017-Sep-12 22:30N 51°13' E 004°24'0 0.0
2017-Sep-12 22:00N 51°13' E 004°24'0 0.0
2017-Sep-12 21:30N 51°13' E 004°24'0 0.0
2017-Sep-12 21:00N 51°13' E 004°24'0 0.0
2017-Sep-12 20:30N 51°13' E 004°24'0 0.0
2017-Sep-12 20:00N 51°13' E 004°24'0 0.0
2017-Sep-12 19:30N 51°13' E 004°24'0 0.0
2017-Sep-12 19:00N 51°13' E 004°24'0 0.0
2017-Sep-12 18:30N 51°13' E 004°24'0 0.0
2017-Sep-12 18:00N 51°13' E 004°24'0 0.0
2017-Sep-12 17:30N 51°13' E 004°24'0 0.0
2017-Sep-12 17:00N 51°13' E 004°24'0 0.0
2017-Sep-12 16:30N 51°13' E 004°24'0 0.0
2017-Sep-12 16:00N 51°13' E 004°24'0 0.0
2017-Sep-12 15:30N 51°13' E 004°24'0 0.0
2017-Sep-12 15:00N 51°13' E 004°24'0 0.0
2017-Sep-12 14:30N 51°13' E 004°24'0 0.0
2017-Sep-12 14:00N 51°13' E 004°24'0 0.0
2017-Sep-12 13:30N 51°13' E 004°24'0 0.0
2017-Sep-12 13:00N 51°13' E 004°24'0 0.0
2017-Sep-12 12:30N 51°13' E 004°24'0 0.0
2017-Sep-12 12:00N 51°13' E 004°24'0 0.0
2017-Sep-12 11:30N 51°13' E 004°24'0 0.0
2017-Sep-12 11:00N 51°13' E 004°24'0 0.0
2017-Sep-12 10:30N 51°13' E 004°24'0 0.0
2017-Sep-12 10:00N 51°13' E 004°24'0 0.0
2017-Sep-12 09:30N 51°13' E 004°24'0 0.0
2017-Sep-12 09:00N 51°13' E 004°24'0 0.0
2017-Sep-12 08:30N 51°13' E 004°24'0 0.0
2017-Sep-12 08:00N 51°13' E 004°24'0 0.0
2017-Sep-12 07:27N 51°13' E 004°24'0 0.0
2017-Sep-12 07:00N 51°13' E 004°24'0 0.0
2017-Sep-12 06:30N 51°13' E 004°24'0 0.0
2017-Sep-12 06:00N 51°13' E 004°24'0 1.0
2017-Sep-12 05:30N 51°14' E 004°24'4 7.5
2017-Sep-12 05:01N 51°15' E 004°18'4 8.8
2017-Sep-12 04:31N 51°19' E 004°16'510.9
2017-Sep-12 04:00N 51°23' E 004°10'713.3
2017-Sep-12 03:30N 51°26' E 004°00'815.2
2017-Sep-12 03:00N 51°21' E 003°52'613.0
2017-Sep-12 02:30N 51°24' E 003°43'510.8
2017-Sep-12 02:00N 51°26' E 003°35'612.5
2017-Sep-12 01:30N 51°30' E 003°27'714.3
2017-Sep-12 01:00N 51°37' E 003°22'612.2
2017-Sep-12 00:30N 51°42' E 003°16'1224.0
2017-Sep-12 00:00N 51°54' E 003°17'0 0.0
2017-Sep-11 23:30N 51°54' E 003°17'0 0.0
2017-Sep-11 23:00N 51°54' E 003°17'3 5.3
2017-Sep-11 22:30N 51°56' E 003°18'109 9.2
2017-Sep-11 10:36N 53°31' E 004°48'2 9.4
2017-Sep-11 10:22N 53°32' E 004°51'4 9.6
2017-Sep-11 09:59N 53°33' E 004°57'121 9.7
2017-Sep-10 21:34N 54°00' E 008°16'1 8.4
2017-Sep-10 21:28N 54°00' E 008°17'612.6
2017-Sep-10 21:00N 53°59' E 008°27'816.2
2017-Sep-10 20:30N 53°56' E 008°40'714.8
2017-Sep-10 20:00N 53°51' E 008°47'816.9
2017-Sep-10 19:31N 53°52' E 009°02'  

Dump ship's entire track history